Time;durP1;ratioP1;P1;durP2;ratioP2;P2;SDS_P1;SDS_P2;PMS_P1;PMS_P2;Temp;Humidity;BMP_temperature;BMP_pressure;BME280_temperature;BME280_humidity;BME280_pressure;Samples;Min_cycle;Max_cycle;Signal;HPM_P1;HPM_P2
2023/07/15 00:00:18;;;;;;;3.05;2.55;;;;;;;21.31;50.21;100256.38;5040066;28;20151;-77
2023/07/15 00:02:45;;;;;;;4.97;2.88;;;;;;;21.23;51.02;100248.22;5041924;28;20541;-70
2023/07/15 00:05:35;;;;;;;5.18;2.60;;;;;;;21.22;50.76;100248.38;5039690;28;20056;-68
2023/07/15 00:08:01;;;;;;;3.42;2.50;;;;;;;21.10;50.92;100245.94;5044663;28;20526;-76
2023/07/15 00:10:27;;;;;;;5.10;2.70;;;;;;;21.09;51.46;100251.53;5043619;28;20029;-71
2023/07/15 00:12:52;;;;;;;5.15;2.72;;;;;;;21.06;51.23;100243.72;5041494;28;20029;-75
2023/07/15 00:15:18;;;;;;;4.57;2.67;;;;;;;21.05;51.35;100247.44;5043578;28;20423;-75
2023/07/15 00:17:43;;;;;;;4.10;2.58;;;;;;;21.02;50.91;100242.34;5042253;28;20055;-76
2023/07/15 00:20:14;;;;;;;6.65;2.85;;;;;;;20.93;51.89;100249.56;5038770;28;20387;-75
2023/07/15 00:22:44;;;;;;;3.28;2.35;;;;;;;20.91;51.50;100243.47;5033544;28;20112;-79
2023/07/15 00:25:18;;;;;;;4.55;2.95;;;;;;;20.83;52.19;100233.47;5059398;28;20017;-78
2023/07/15 00:27:44;;;;;;;3.63;2.80;;;;;;;20.78;52.33;100241.22;5032963;28;20029;-70
2023/07/15 00:30:13;;;;;;;3.50;2.42;;;;;;;20.78;52.34;100241.22;5042991;28;20036;-76
2023/07/15 00:32:45;;;;;;;3.85;2.63;;;;;;;20.73;52.48;100245.38;5040279;28;20032;-69
2023/07/15 00:35:22;;;;;;;4.55;2.80;;;;;;;20.67;52.58;100238.75;5039594;28;20041;-74
2023/07/15 00:37:48;;;;;;;4.07;3.03;;;;;;;20.67;52.53;100243.31;5040796;28;20106;-80
2023/07/15 00:40:14;;;;;;;4.25;2.97;;;;;;;20.61;53.35;100242.94;5038275;28;20025;-74
2023/07/15 00:42:50;;;;;;;4.07;2.25;;;;;;;20.63;52.43;100240.06;5034673;28;20047;-79
2023/07/15 00:45:15;;;;;;;3.38;2.80;;;;;;;20.59;53.13;100236.81;5044243;28;20420;-75
2023/07/15 00:47:50;;;;;;;5.72;2.80;;;;;;;20.59;53.04;100249.50;5040976;28;20064;-76
2023/07/15 00:50:16;;;;;;;4.03;2.40;;;;;;;20.54;53.00;100247.28;5035718;28;20055;-75
2023/07/15 00:52:42;;;;;;;3.40;2.42;;;;;;;20.47;53.47;100248.00;5027074;28;20030;-78
2023/07/15 00:55:08;;;;;;;3.42;2.67;;;;;;;20.47;53.20;100256.13;5025215;28;20514;-74
2023/07/15 00:57:34;;;;;;;5.13;2.70;;;;;;;20.46;52.82;100257.97;5025131;28;20119;-69
2023/07/15 00:59:59;;;;;;;3.78;2.67;;;;;;;20.45;52.78;100258.16;5041037;28;20037;-72
2023/07/15 01:02:26;;;;;;;4.57;2.78;;;;;;;20.43;53.02;100255.59;5039797;28;20017;-75
2023/07/15 01:04:52;;;;;;;3.80;2.70;;;;;;;20.37;53.04;100264.34;5035413;28;20456;-72
2023/07/15 01:07:17;;;;;;;3.83;3.15;;;;;;;20.32;53.60;100254.00;5038904;28;20090;-76
2023/07/15 01:09:44;;;;;;;4.60;3.10;;;;;;;20.26;53.56;100249.19;5033591;28;20014;-75
2023/07/15 01:12:09;;;;;;;3.97;3.10;;;;;;;20.26;54.08;100259.16;5040705;28;20036;-72
2023/07/15 01:14:36;;;;;;;4.05;3.30;;;;;;;20.24;53.16;100262.03;5031095;28;20504;-72
2023/07/15 01:17:05;;;;;;;5.85;3.40;;;;;;;20.16;54.13;100253.84;5039320;28;20033;-70
2023/07/15 01:19:31;;;;;;;4.07;3.33;;;;;;;20.12;53.92;100257.84;5038236;28;20040;-77
2023/07/15 01:21:56;;;;;;;3.55;3.15;;;;;;;20.12;54.16;100252.44;5030108;28;20025;-74
2023/07/15 01:24:22;;;;;;;3.30;3.00;;;;;;;20.07;54.42;100258.31;5028878;28;20163;-78
2023/07/15 01:26:55;;;;;;;5.10;3.30;;;;;;;20.07;54.25;100257.47;5028806;28;20053;-66
2023/07/15 01:29:20;;;;;;;4.55;3.13;;;;;;;20.03;54.42;100254.22;5037625;28;20336;-77
2023/07/15 01:31:45;;;;;;;3.75;3.20;;;;;;;19.98;54.76;100253.84;5041728;28;20079;-70
2023/07/15 01:34:12;;;;;;;4.28;2.97;;;;;;;19.96;55.35;100258.53;5033549;28;20025;-72
2023/07/15 01:36:38;;;;;;;6.60;2.88;;;;;;;19.95;55.05;100250.59;5030803;28;20028;-71
2023/07/15 01:39:06;;;;;;;4.50;3.33;;;;;;;19.88;55.42;100248.47;5034941;28;20080;-78
2023/07/15 01:41:35;;;;;;;3.78;3.20;;;;;;;19.86;54.92;100258.59;5038881;28;20446;-69
2023/07/15 01:44:02;;;;;;;3.30;3.00;;;;;;;19.82;55.35;100251.78;5033379;28;20017;-72
2023/07/15 01:46:28;;;;;;;3.88;3.00;;;;;;;19.82;55.28;100254.50;5040997;28;20807;-75
2023/07/15 01:48:53;;;;;;;4.90;3.08;;;;;;;19.74;56.28;100251.72;5026889;28;20518;-75
2023/07/15 01:51:19;;;;;;;3.67;2.80;;;;;;;19.68;56.11;100251.44;5050079;28;20028;-72
2023/07/15 01:53:44;;;;;;;4.47;3.15;;;;;;;19.58;57.33;100241.53;5030847;28;20029;-76
2023/07/15 01:56:09;;;;;;;4.00;2.95;;;;;;;19.61;57.34;100248.53;5031828;28;20025;-78
2023/07/15 01:58:35;;;;;;;3.63;3.15;;;;;;;19.56;56.93;100253.47;5029000;28;20052;-72
2023/07/15 02:01:00;;;;;;;4.45;3.03;;;;;;;19.53;56.97;100257.34;5038225;28;20020;-74
2023/07/15 02:03:25;;;;;;;4.13;2.92;;;;;;;19.48;56.83;100256.94;5034081;28;20040;-78
2023/07/15 02:05:51;;;;;;;4.13;2.90;;;;;;;19.42;57.75;100257.53;5034718;28;20186;-71
2023/07/15 02:08:16;;;;;;;6.82;3.80;;;;;;;19.42;57.34;100263.75;5040529;28;20230;-74
2023/07/15 02:10:41;;;;;;;4.80;3.60;;;;;;;19.36;58.33;100258.97;5038754;28;20362;-75
2023/07/15 02:13:09;;;;;;;4.45;3.63;;;;;;;19.34;58.82;100254.72;5036471;28;20037;-70
2023/07/15 02:15:34;;;;;;;6.03;3.78;;;;;;;19.29;59.89;100257.00;5031209;28;20028;-73
2023/07/15 02:17:59;;;;;;;5.22;4.18;;;;;;;19.24;59.70;100253.91;5039873;28;20033;-69
2023/07/15 02:20:25;;;;;;;5.25;3.75;;;;;;;19.16;60.55;100258.19;5037747;28;20029;-77
2023/07/15 02:22:52;;;;;;;7.00;4.53;;;;;;;19.08;61.14;100252.69;5037860;28;20039;-68
2023/07/15 02:25:19;;;;;;;4.20;3.58;;;;;;;19.06;60.30;100259.22;5040275;28;20113;-74
2023/07/15 02:27:45;;;;;;;4.85;3.97;;;;;;;18.96;61.47;100261.94;5033614;28;20120;-75
2023/07/15 02:30:11;;;;;;;7.82;3.45;;;;;;;18.87;61.51;100263.69;5040057;28;20044;-74
2023/07/15 02:32:39;;;;;;;6.63;3.38;;;;;;;18.90;61.39;100260.69;5035338;28;20112;-79
2023/07/15 02:35:08;;;;;;;4.50;3.10;;;;;;;18.78;63.02;100259.16;5037390;28;20063;-74
2023/07/15 02:37:35;;;;;;;5.03;3.20;;;;;;;18.83;62.46;100259.56;5032947;28;20028;-74
2023/07/15 02:40:01;;;;;;;4.05;3.22;;;;;;;18.77;63.52;100257.47;5039384;28;20029;-73
2023/07/15 02:42:26;;;;;;;4.53;3.10;;;;;;;18.74;64.38;100270.38;5036019;28;20029;-79
2023/07/15 02:44:51;;;;;;;3.55;3.03;;;;;;;18.70;64.28;100267.13;5038444;28;20068;-77
2023/07/15 02:47:17;;;;;;;3.10;2.75;;;;;;;18.64;65.11;100267.66;5031388;28;20053;-79
2023/07/15 02:49:43;;;;;;;3.97;3.13;;;;;;;18.58;65.25;100270.94;5030484;28;20025;-72
2023/07/15 02:52:08;;;;;;;5.40;2.88;;;;;;;18.49;64.94;100261.03;5043985;28;20105;-72
2023/07/15 02:54:34;;;;;;;4.38;2.70;;;;;;;18.48;65.25;100267.41;5033500;28;20327;-77
2023/07/15 02:56:59;;;;;;;4.18;3.13;;;;;;;18.52;65.99;100271.50;5035314;28;20120;-72
2023/07/15 02:59:24;;;;;;;4.45;2.67;;;;;;;18.41;66.69;100259.88;5037897;28;20074;-76
2023/07/15 03:01:50;;;;;;;2.67;2.47;;;;;;;18.40;66.58;100260.03;5031964;28;20112;-73
2023/07/15 03:04:15;;;;;;;5.35;3.17;;;;;;;18.34;66.74;100263.28;5038011;28;20033;-72
2023/07/15 03:06:41;;;;;;;6.10;2.70;;;;;;;18.30;66.52;100262.72;5040293;28;20032;-75
2023/07/15 03:09:07;;;;;;;4.13;2.75;;;;;;;18.23;66.36;100258.91;5036020;28;20466;-76
2023/07/15 03:11:35;;;;;;;5.07;2.70;;;;;;;18.25;66.61;100261.44;5028829;28;20055;-70
2023/07/15 03:14:01;;;;;;;3.65;2.80;;;;;;;18.21;67.50;100260.88;5036730;28;20021;-78
2023/07/15 03:16:26;;;;;;;3.95;3.00;;;;;;;18.21;68.24;100258.19;5032858;28;20031;-74
2023/07/15 03:18:52;;;;;;;3.67;3.00;;;;;;;18.18;68.50;100255.75;5027795;28;20195;-77
2023/07/15 03:21:17;;;;;;;3.42;2.90;;;;;;;18.17;68.83;100259.44;5034554;28;20032;-79
2023/07/15 03:23:42;;;;;;;3.33;2.72;;;;;;;18.14;68.68;100254.34;5026505;28;20116;-76
2023/07/15 03:26:08;;;;;;;4.43;2.58;;;;;;;18.14;69.60;100262.41;5028275;28;20383;-75
2023/07/15 03:28:33;;;;;;;4.70;2.55;;;;;;;18.11;69.94;100266.25;5027980;28;20469;-69
2023/07/15 03:30:59;;;;;;;5.68;2.80;;;;;;;18.10;70.54;100266.38;5033571;28;20048;-77
2023/07/15 03:33:24;;;;;;;4.07;3.00;;;;;;;18.02;70.09;100267.09;5038585;28;20075;-75
2023/07/15 03:35:49;;;;;;;3.50;2.80;;;;;;;17.99;71.08;100267.38;5038757;28;20314;-75
2023/07/15 03:38:15;;;;;;;3.30;3.00;;;;;;;18.01;71.25;100264.53;5041575;28;20044;-76
2023/07/15 03:40:40;;;;;;;4.95;2.92;;;;;;;17.99;70.94;100264.69;5033437;28;20079;-77
2023/07/15 03:43:05;;;;;;;4.35;3.13;;;;;;;17.95;71.11;100275.88;5041326;28;20031;-78
2023/07/15 03:45:31;;;;;;;3.55;2.90;;;;;;;17.96;71.48;100277.56;5033507;28;20596;-74
2023/07/15 03:47:56;;;;;;;4.53;2.92;;;;;;;17.90;71.75;100274.44;5037538;28;20052;-76
2023/07/15 03:50:22;;;;;;;4.97;2.88;;;;;;;17.87;71.57;100271.19;5028700;28;20112;-81
2023/07/15 03:52:47;;;;;;;4.47;2.80;;;;;;;17.85;72.13;100268.63;5030433;28;20040;-73
2023/07/15 03:55:12;;;;;;;3.50;2.97;;;;;;;17.87;71.64;100258.56;5036548;28;20035;-73
2023/07/15 03:57:38;;;;;;;6.70;3.53;;;;;;;17.81;72.43;100261.81;5032057;28;20021;-78
2023/07/15 04:00:13;;;;;;;3.05;2.75;;;;;;;17.82;71.41;100268.91;5028007;28;20455;-69
2023/07/15 04:02:40;;;;;;;3.85;2.90;;;;;;;17.78;72.56;100269.31;5023557;28;20036;-75
2023/07/15 04:05:06;;;;;;;4.13;3.13;;;;;;;17.78;73.05;100258.56;5028050;28;20258;-79
2023/07/15 04:07:32;;;;;;;3.65;2.95;;;;;;;17.79;72.78;100265.63;5035563;28;20063;-78
2023/07/15 04:09:57;;;;;;;9.25;3.40;;;;;;;17.80;72.50;100262.78;5029202;28;20085;-79
2023/07/15 04:12:23;;;;;;;5.63;3.22;;;;;;;17.82;72.07;100254.59;5028024;28;20231;-73
2023/07/15 04:14:49;;;;;;;3.47;3.17;;;;;;;17.78;72.29;100261.25;5033272;28;20021;-74
2023/07/15 04:17:15;;;;;;;5.32;3.78;;;;;;;17.79;73.25;100260.25;5024828;28;20029;-68
2023/07/15 04:19:41;;;;;;;4.70;3.75;;;;;;;17.83;72.10;100257.16;5038625;28;20189;-78
2023/07/15 04:22:06;;;;;;;3.92;3.47;;;;;;;17.82;72.92;100250.06;5037202;28;20100;-81
2023/07/15 04:24:32;;;;;;;4.97;3.28;;;;;;;17.84;72.96;100261.53;5027232;28;20347;-72
2023/07/15 04:26:57;;;;;;;4.70;3.42;;;;;;;17.80;73.73;100265.47;5031102;28;20568;-80
2023/07/15 04:29:23;;;;;;;3.75;3.42;;;;;;;17.88;73.48;100262.94;5027715;28;20285;-71
2023/07/15 04:31:48;;;;;;;6.45;3.33;;;;;;;17.91;73.57;100262.69;5031793;28;20041;-72
2023/07/15 04:34:13;;;;;;;5.18;3.50;;;;;;;17.92;72.88;100264.38;5037586;28;20028;-78
2023/07/15 04:36:39;;;;;;;4.55;3.80;;;;;;;17.94;73.00;100274.19;5033965;28;20032;-68
2023/07/15 04:39:05;;;;;;;5.47;3.63;;;;;;;18.00;73.90;100268.22;5029452;28;20099;-66
2023/07/15 04:41:31;;;;;;;5.13;4.18;;;;;;;17.99;74.83;100278.16;5044576;28;20056;-78
2023/07/15 04:43:56;;;;;;;5.40;3.90;;;;;;;18.02;73.64;100272.50;5041540;28;20111;-72
2023/07/15 04:46:21;;;;;;;7.50;3.90;;;;;;;18.09;74.66;100272.75;5039349;28;20024;-78
2023/07/15 04:48:47;;;;;;;5.88;4.05;;;;;;;18.11;74.81;100282.41;5035516;28;20487;-68
2023/07/15 04:51:12;;;;;;;5.40;4.03;;;;;;;18.12;74.67;100284.09;5037442;28;20039;-74
2023/07/15 04:53:43;;;;;;;6.05;3.97;;;;;;;18.15;74.82;100286.53;5017484;28;20325;-79
2023/07/15 04:56:09;;;;;;;4.10;3.70;;;;;;;18.20;70.06;100280.72;5035644;28;20033;-78
2023/07/15 04:58:35;;;;;;;5.65;3.88;;;;;;;18.29;69.79;100282.56;5037232;28;20430;-75
2023/07/15 05:01:00;;;;;;;6.47;4.15;;;;;;;18.35;69.07;100278.44;5033331;28;20115;-68
2023/07/15 05:03:26;;;;;;;6.18;4.18;;;;;;;18.41;68.50;100281.44;5034108;28;20388;-73
2023/07/15 05:05:52;;;;;;;5.18;4.20;;;;;;;18.51;68.02;100285.97;5036123;28;20097;-74
2023/07/15 05:08:18;;;;;;;6.05;4.60;;;;;;;18.56;72.11;100281.00;5036542;28;20029;-73
2023/07/15 05:10:49;;;;;;;7.15;4.28;;;;;;;18.67;69.21;100284.38;5036199;28;20086;-79
2023/07/15 05:13:15;;;;;;;10.80;4.70;;;;;;;18.78;68.39;100282.56;5040843;28;20055;-70
2023/07/15 05:15:41;;;;;;;6.55;4.00;;;;;;;18.87;68.51;100282.56;5044420;28;20399;-71
2023/07/15 05:18:07;;;;;;;5.63;3.83;;;;;;;19.00;66.70;100286.78;5043703;28;20336;-70
2023/07/15 05:20:34;;;;;;;6.10;4.05;;;;;;;19.04;67.08;100283.66;5045480;28;20041;-72
2023/07/15 05:23:01;;;;;;;4.28;3.83;;;;;;;19.16;65.27;100285.19;5047440;28;20027;-71
2023/07/15 05:25:27;;;;;;;6.53;4.07;;;;;;;19.25;65.57;100274.50;5039799;28;20044;-69
2023/07/15 05:27:53;;;;;;;4.93;4.43;;;;;;;19.37;64.91;100270.63;5043401;28;20025;-78
2023/07/15 05:30:19;;;;;;;7.20;4.15;;;;;;;19.47;64.80;100275.97;5045748;28;20495;-73
2023/07/15 05:32:45;;;;;;;8.48;4.28;;;;;;;19.58;65.14;100275.78;5044971;28;20086;-78
2023/07/15 05:35:10;;;;;;;3.92;3.58;;;;;;;19.67;65.37;100274.06;5039695;28;20432;-75
2023/07/15 05:37:35;;;;;;;3.58;3.03;;;;;;;19.73;64.66;100277.00;5030151;28;20345;-78
2023/07/15 05:40:01;;;;;;;5.60;3.03;;;;;;;19.82;63.85;100280.66;5033416;28;20035;-77
2023/07/15 05:42:26;;;;;;;5.43;3.08;;;;;;;19.88;64.27;100288.97;5034575;28;20022;-75
2023/07/15 05:44:52;;;;;;;4.90;3.55;;;;;;;19.98;63.48;100290.78;5030394;28;20044;-77
2023/07/15 05:47:17;;;;;;;4.13;3.65;;;;;;;20.08;62.81;100288.88;5027149;28;20554;-69
2023/07/15 05:49:42;;;;;;;5.30;3.70;;;;;;;20.19;62.16;100291.38;5030416;28;20433;-75
2023/07/15 05:52:08;;;;;;;4.85;3.75;;;;;;;20.32;61.90;100296.38;5030911;28;20036;-77
2023/07/15 05:54:37;;;;;;;6.22;3.40;;;;;;;20.47;62.15;100302.94;5037801;28;20020;-70
2023/07/15 05:57:03;;;;;;;5.05;3.40;;;;;;;20.59;61.33;100290.91;5035628;28;20044;-69
2023/07/15 05:59:28;;;;;;;5.90;3.17;;;;;;;20.69;60.94;100284.56;5037460;28;20079;-69
2023/07/15 06:01:53;;;;;;;5.63;2.72;;;;;;;20.89;60.66;100288.75;5034402;28;20399;-73
2023/07/15 06:04:20;;;;;;;3.33;2.53;;;;;;;21.05;61.03;100285.31;5039816;28;20066;-75
2023/07/15 06:06:46;;;;;;;5.63;2.55;;;;;;;21.25;60.67;100297.63;5034228;28;20053;-77
2023/07/15 06:09:11;;;;;;;9.13;3.03;;;;;;;21.52;59.24;100303.88;5029161;28;20087;-71
2023/07/15 06:11:36;;;;;;;7.43;2.40;;;;;;;21.69;59.56;100300.25;5030850;28;20563;-75
2023/07/15 06:14:04;;;;;;;6.57;2.70;;;;;;;22.12;58.70;100312.78;5039494;28;20534;-78
2023/07/15 06:16:30;;;;;;;2.85;2.13;;;;;;;22.61;57.68;100298.44;5040219;28;20245;-77
2023/07/15 06:18:55;;;;;;;2.70;2.13;;;;;;;22.94;56.67;100304.72;5037117;28;20040;-73
2023/07/15 06:21:21;;;;;;;3.10;2.10;;;;;;;23.18;55.94;100295.72;5025470;28;21153;-74
2023/07/15 06:23:47;;;;;;;4.38;1.85;;;;;;;23.41;56.08;100298.56;5027508;28;20116;-77
2023/07/15 06:26:12;;;;;;;3.20;1.90;;;;;;;23.47;55.99;100308.72;5030916;28;20036;-77
2023/07/15 06:28:39;;;;;;;2.63;1.95;;;;;;;23.38;56.43;100298.06;5038838;28;20029;-79
2023/07/15 06:31:09;;;;;;;2.42;1.50;;;;;;;23.21;57.33;100313.53;5038852;28;20072;-67
2023/07/15 06:33:37;;;;;;;4.32;1.75;;;;;;;22.93;58.71;100308.47;5037571;28;20028;-67
2023/07/15 06:36:03;;;;;;;4.65;1.73;;;;;;;22.71;59.32;100299.13;5032284;28;20456;-76
2023/07/15 06:38:32;;;;;;;3.72;1.75;;;;;;;22.79;58.81;100311.84;5037054;28;20036;-75
2023/07/15 06:40:58;;;;;;;3.90;1.90;;;;;;;22.94;58.61;100307.44;5039461;28;20024;-77
2023/07/15 06:43:23;;;;;;;3.75;1.80;;;;;;;23.15;56.77;100306.06;5032842;28;20230;-67
2023/07/15 06:45:48;;;;;;;3.17;1.88;;;;;;;23.39;56.98;100311.44;5036909;28;20028;-77
2023/07/15 06:48:14;;;;;;;2.58;1.67;;;;;;;23.63;56.15;100283.34;5032938;28;20403;-80
2023/07/15 06:50:40;;;;;;;4.28;1.85;;;;;;;23.94;55.37;100288.00;5043421;28;20025;-71
2023/07/15 06:53:06;;;;;;;3.47;1.90;;;;;;;24.08;53.47;100296.25;5026688;28;20567;-76
2023/07/15 06:55:31;;;;;;;2.25;1.70;;;;;;;23.90;53.45;100287.50;5030182;28;20040;-72
2023/07/15 06:57:56;;;;;;;3.88;1.77;;;;;;;24.00;53.61;100299.00;5036696;28;20108;-69
2023/07/15 07:00:22;;;;;;;3.83;2.00;;;;;;;24.17;53.44;100301.63;5037889;28;20193;-79
2023/07/15 07:02:48;;;;;;;2.90;2.20;;;;;;;24.20;53.35;100298.53;5044329;28;20521;-76
2023/07/15 07:05:15;;;;;;;3.53;2.25;;;;;;;24.29;53.47;100301.03;5042856;28;20107;-76
2023/07/15 07:07:40;;;;;;;2.75;1.70;;;;;;;24.17;53.72;100302.47;5034672;28;20028;-76
2023/07/15 07:10:06;;;;;;;2.90;1.80;;;;;;;24.01;54.37;100291.69;5040401;28;20116;-78
2023/07/15 07:12:32;;;;;;;3.72;1.70;;;;;;;24.07;55.75;100294.53;5038881;28;20024;-76
2023/07/15 07:14:57;;;;;;;5.47;1.80;;;;;;;24.25;55.93;100304.31;5050124;28;20257;-76
2023/07/15 07:17:23;;;;;;;2.88;1.60;;;;;;;24.28;56.44;100306.63;5033201;28;20080;-69
2023/07/15 07:19:48;;;;;;;1.90;1.70;;;;;;;24.14;57.24;100308.28;5035474;28;20021;-75
2023/07/15 07:22:13;;;;;;;1.58;1.42;;;;;;;24.26;57.46;100311.44;5033194;28;20491;-80
2023/07/15 07:24:39;;;;;;;3.15;1.40;;;;;;;24.73;56.93;100310.44;5026478;28;20036;-68
2023/07/15 07:27:04;;;;;;;2.97;1.75;;;;;;;25.28;55.91;100301.91;5038872;28;20020;-72
2023/07/15 07:29:30;;;;;;;3.20;1.40;;;;;;;25.62;54.52;100310.56;5030526;28;20512;-78
2023/07/15 07:31:55;;;;;;;2.00;1.40;;;;;;;25.64;54.79;100312.09;5036317;28;20033;-72
2023/07/15 07:34:20;;;;;;;3.53;1.55;;;;;;;26.08;53.88;100325.69;5022048;28;20308;-71
2023/07/15 07:36:46;;;;;;;3.25;1.30;;;;;;;25.96;53.80;100323.63;5036054;28;20316;-75
2023/07/15 07:39:12;;;;;;;3.67;1.60;;;;;;;25.50;54.42;100313.78;5026573;28;20087;-75
2023/07/15 07:41:38;;;;;;;3.33;1.80;;;;;;;25.21;55.83;100316.50;5029930;28;20025;-74
2023/07/15 07:44:04;;;;;;;2.33;1.60;;;;;;;25.11;55.66;100314.03;5036070;28;20502;-70
2023/07/15 07:46:29;;;;;;;3.83;1.70;;;;;;;25.33;56.41;100299.50;5033069;28;20064;-76
2023/07/15 07:48:55;;;;;;;3.60;1.40;;;;;;;25.77;54.03;100308.72;5038980;28;20604;-69
2023/07/15 07:51:20;;;;;;;4.80;1.50;;;;;;;25.95;53.73;100311.03;5036536;28;20111;-73
2023/07/15 07:53:45;;;;;;;2.15;1.70;;;;;;;26.36;52.92;100318.66;5033576;28;20033;-73
2023/07/15 07:56:11;;;;;;;2.40;1.40;;;;;;;26.41;51.83;100321.63;5031931;28;20508;-70
2023/07/15 07:58:39;;;;;;;2.90;1.58;;;;;;;26.15;52.50;100312.13;5036795;28;20378;-71
2023/07/15 08:01:08;;;;;;;2.85;1.75;;;;;;;25.90;52.24;100311.59;5037538;28;20031;-74
2023/07/15 08:03:33;;;;;;;4.05;2.10;;;;;;;25.84;53.08;100298.75;5041188;28;20095;-70
2023/07/15 08:05:59;;;;;;;2.63;1.63;;;;;;;25.82;52.81;100314.44;5035908;28;20479;-67
2023/07/15 08:08:25;;;;;;;2.40;1.55;;;;;;;25.65;52.22;100330.13;5035096;28;20034;-68
2023/07/15 08:10:50;;;;;;;3.35;2.28;;;;;;;25.77;53.29;100339.53;5029755;28;20085;-73
2023/07/15 08:13:16;;;;;;;3.67;2.10;;;;;;;25.93;51.93;100329.47;5034656;28;20033;-73
2023/07/15 08:15:41;;;;;;;3.72;1.98;;;;;;;26.20;51.50;100320.56;5027746;28;20538;-71
2023/07/15 08:18:07;;;;;;;2.90;2.00;;;;;;;26.74;50.06;100336.47;5040363;28;20108;-71
2023/07/15 08:20:34;;;;;;;1.90;1.70;;;;;;;26.56;50.39;100341.56;5025569;28;20047;-74
2023/07/15 08:23:00;;;;;;;2.55;1.80;;;;;;;26.41;50.76;100332.53;5040149;28;20418;-73
2023/07/15 08:25:26;;;;;;;3.17;1.60;;;;;;;26.76;50.64;100339.88;5042941;28;20136;-74
2023/07/15 08:27:52;;;;;;;4.05;2.13;;;;;;;27.73;48.70;100325.50;5037124;28;20021;-76
2023/07/15 08:30:18;;;;;;;2.78;1.52;;;;;;;27.70;47.88;100339.53;5026669;28;20056;-75
2023/07/15 08:32:44;;;;;;;2.83;1.40;;;;;;;27.08;48.60;100340.34;5039470;28;20082;-71
2023/07/15 08:35:10;;;;;;;3.25;1.48;;;;;;;26.62;50.03;100348.97;5030291;28;20740;-74
2023/07/15 08:37:38;;;;;;;2.22;1.48;;;;;;;26.36;50.30;100351.38;5029730;28;20502;-69
2023/07/15 08:40:07;;;;;;;3.22;1.60;;;;;;;26.26;51.12;100340.78;5040722;28;20491;-74
2023/07/15 08:42:35;;;;;;;1.88;1.50;;;;;;;26.75;49.98;100350.97;5045124;28;20037;-72
2023/07/15 08:45:00;;;;;;;4.72;2.25;;;;;;;26.99;49.41;100358.75;5027831;28;20356;-68
2023/07/15 08:47:26;;;;;;;2.53;1.67;;;;;;;27.01;48.75;100367.63;5028380;28;20057;-71
2023/07/15 08:49:54;;;;;;;6.50;1.98;;;;;;;26.88;49.14;100356.59;5039727;28;20029;-74
2023/07/15 08:52:22;;;;;;;2.38;1.65;;;;;;;27.18;48.75;100356.44;5033431;28;20112;-76
2023/07/15 08:54:49;;;;;;;2.95;2.10;;;;;;;27.34;48.59;100358.88;5027965;28;20483;-72
2023/07/15 08:57:19;;;;;;;2.28;1.80;;;;;;;27.19;48.19;100375.34;5033672;28;20115;-72
2023/07/15 08:59:46;;;;;;;2.80;1.65;;;;;;;26.85;48.43;100399.81;5034909;28;20025;-72
2023/07/15 09:02:12;;;;;;;3.80;1.70;;;;;;;26.35;50.05;100382.44;5030276;28;20037;-77
2023/07/15 09:04:38;;;;;;;2.50;2.00;;;;;;;25.92;50.85;100396.81;5025067;28;20024;-75
2023/07/15 09:07:04;;;;;;;3.45;1.90;;;;;;;25.57;50.89;100393.72;5024782;28;20276;-75
2023/07/15 09:09:38;;;;;;;6.00;2.40;;;;;;;25.44;51.31;100398.13;5031630;28;20036;-73
2023/07/15 09:12:09;;;;;;;2.97;2.38;;;;;;;25.25;51.02;100414.00;5039571;28;20052;-72
2023/07/15 09:14:45;;;;;;;5.68;2.50;;;;;;;24.94;52.25;100408.59;5040145;28;20025;-74
2023/07/15 09:17:19;;;;;;;4.43;2.40;;;;;;;24.66;52.94;100391.09;5043105;28;20044;-75
2023/07/15 09:19:46;;;;;;;3.85;2.20;;;;;;;24.43;53.94;100394.66;5032758;28;20071;-69
2023/07/15 09:22:11;;;;;;;3.03;2.08;;;;;;;24.38;54.59;100390.78;5024753;28;20499;-74
2023/07/15 09:24:39;;;;;;;4.35;2.47;;;;;;;24.42;54.97;100375.78;5036198;28;20025;-68
2023/07/15 09:27:07;;;;;;;5.35;2.22;;;;;;;24.33;55.19;100373.09;5025534;28;20033;-73
2023/07/15 09:29:33;;;;;;;3.85;2.22;;;;;;;24.27;54.86;100362.91;5034358;28;20013;-74
2023/07/15 09:31:58;;;;;;;2.63;2.13;;;;;;;24.21;55.89;100382.66;5028772;28;20045;-77
2023/07/15 09:34:25;;;;;;;2.97;1.95;;;;;;;24.23;55.94;100388.75;5025442;28;20024;-73
2023/07/15 09:36:51;;;;;;;4.63;1.90;;;;;;;24.24;55.88;100385.00;5027456;28;20140;-70
2023/07/15 09:39:22;;;;;;;3.58;1.83;;;;;;;24.28;56.53;100388.22;5030365;28;20043;-73
2023/07/15 09:42:09;;;;;;;4.28;1.90;;;;;;;24.41;56.58;100404.00;5023568;28;20057;-75
2023/07/15 09:44:43;;;;;;;4.30;2.35;;;;;;;24.16;62.73;100400.53;5025491;28;20029;-74
2023/07/15 09:47:09;;;;;;;2.95;2.17;;;;;;;23.28;65.26;100406.84;5024625;28;20068;-73
2023/07/15 09:49:35;;;;;;;3.78;2.13;;;;;;;23.09;68.05;100410.75;5039223;28;20018;-70
2023/07/15 09:52:03;;;;;;;4.03;2.40;;;;;;;23.75;63.76;100409.69;5023771;28;20515;-70
2023/07/15 09:54:31;;;;;;;3.03;2.50;;;;;;;24.41;60.80;100414.88;5023846;28;20033;-75
2023/07/15 09:57:00;;;;;;;2.85;1.90;;;;;;;24.99;60.34;100417.03;5036160;28;20059;-76
2023/07/15 09:59:30;;;;;;;2.72;2.00;;;;;;;24.74;57.44;100423.69;5039044;28;20030;-70
2023/07/15 10:02:12;;;;;;;3.53;1.88;;;;;;;24.53;58.30;100432.50;5024523;28;20108;-75
2023/07/15 10:04:44;;;;;;;3.70;1.92;;;;;;;24.42;59.16;100424.75;5025467;28;20056;-68
2023/07/15 10:07:11;;;;;;;4.22;1.88;;;;;;;24.32;57.95;100424.91;5039224;28;20033;-74
2023/07/15 10:09:39;;;;;;;4.97;2.45;;;;;;;24.24;58.49;100425.81;5029034;28;20017;-76
2023/07/15 10:12:06;;;;;;;3.00;2.00;;;;;;;24.22;59.27;100435.19;5051822;28;20438;-76
2023/07/15 10:14:32;;;;;;;9.63;1.85;;;;;;;24.15;58.99;100415.16;5029506;28;20031;-73
2023/07/15 10:17:12;;;;;;;3.67;1.75;;;;;;;23.82;59.70;100401.66;5030874;28;20032;-74
2023/07/15 10:19:46;;;;;;;2.90;1.52;;;;;;;23.45;62.00;100380.50;5023237;28;20075;-70
2023/07/15 10:22:13;;;;;;;2.30;1.45;;;;;;;23.31;61.58;100380.19;5030842;28;20032;-72
2023/07/15 10:24:41;;;;;;;2.97;1.80;;;;;;;23.24;61.80;100371.06;5024196;28;20479;-73
2023/07/15 10:27:10;;;;;;;4.25;1.70;;;;;;;23.24;63.78;100383.75;5038718;28;20070;-73
2023/07/15 10:29:39;;;;;;;3.17;1.73;;;;;;;23.04;64.31;100372.44;5030642;28;20488;-70
2023/07/15 10:32:12;;;;;;;3.22;1.58;;;;;;;23.01;64.54;100386.34;5036612;28;20230;-72
2023/07/15 10:34:47;;;;;;;2.78;1.58;;;;;;;23.23;64.33;100368.50;5031386;28;20041;-68
2023/07/15 10:37:15;;;;;;;2.97;1.60;;;;;;;23.55;61.78;100397.47;5035578;28;20033;-70
2023/07/15 10:39:42;;;;;;;2.80;1.88;;;;;;;24.08;60.76;100382.41;5032922;28;20104;-72
2023/07/15 10:42:13;;;;;;;3.20;1.63;;;;;;;24.41;59.40;100387.69;5039743;28;20033;-68
2023/07/15 10:44:40;;;;;;;3.25;1.95;;;;;;;24.58;58.51;100392.88;5049646;28;20121;-74
2023/07/15 10:47:06;;;;;;;2.65;1.80;;;;;;;24.40;59.02;100388.72;5039306;28;20048;-75
2023/07/15 10:49:32;;;;;;;2.38;1.75;;;;;;;24.13;59.41;100393.59;5035289;28;20491;-71
2023/07/15 10:51:57;;;;;;;2.90;1.98;;;;;;;23.96;59.74;100402.84;5041159;28;20617;-71
2023/07/15 10:54:25;;;;;;;3.30;2.00;;;;;;;23.66;61.60;100393.56;5028820;28;20033;-70
2023/07/15 10:56:50;;;;;;;2.67;1.77;;;;;;;23.53;63.36;100402.22;5054785;28;20029;-71
2023/07/15 10:59:16;;;;;;;2.05;1.83;;;;;;;23.48;63.24;100412.75;5037464;28;20039;-70
2023/07/15 11:01:45;;;;;;;2.80;2.08;;;;;;;23.37;63.58;100413.97;5031179;28;20037;-75
2023/07/15 11:04:11;;;;;;;3.42;1.70;;;;;;;23.30;65.13;100408.38;5032681;28;20059;-71
2023/07/15 11:06:37;;;;;;;3.38;2.13;;;;;;;22.94;69.03;100412.44;5030860;28;20391;-74
2023/07/15 11:09:20;;;;;;;2.50;1.65;;;;;;;22.42;69.86;100404.53;5026606;28;20032;-70
2023/07/15 11:11:47;;;;;;;2.97;1.90;;;;;;;22.06;72.77;100408.25;5031339;28;20029;-76
2023/07/15 11:14:26;;;;;;;3.15;2.30;;;;;;;22.22;73.73;100404.81;5023220;28;20236;-70
2023/07/15 11:16:53;;;;;;;4.15;2.33;;;;;;;22.48;72.59;100402.00;5033800;28;20021;-74
2023/07/15 11:19:18;;;;;;;3.03;1.80;;;;;;;22.76;73.35;100404.44;5046963;28;20033;-71
2023/07/15 11:21:44;;;;;;;2.47;1.80;;;;;;;23.39;70.19;100394.78;5035188;28;20032;-69